Time;durP1;ratioP1;P1;durP2;ratioP2;P2;SDS_P1;SDS_P2;PMS_P1;PMS_P2;Temp;Humidity;BMP_temperature;BMP_pressure;BME280_temperature;BME280_humidity;BME280_pressure;Samples;Min_cycle;Max_cycle;Signal;HPM_P1;HPM_P2
2021/01/15 00:00:24;;;;;;;9.18;6.15;;;1.70;99.90;;;;;;5032165;28;20204;-90
2021/01/15 00:02:51;;;;;;;7.50;6.05;;;1.70;99.90;;;;;;5032180;28;20204;-92
2021/01/15 00:05:18;;;;;;;8.57;6.60;;;1.70;99.90;;;;;;5031780;28;20605;-92
2021/01/15 00:07:44;;;;;;;8.65;5.70;;;1.80;99.90;;;;;;5020257;28;20577;-91
2021/01/15 00:10:11;;;;;;;6.43;5.75;;;1.80;99.90;;;;;;5012519;28;20212;-91
2021/01/15 00:12:38;;;;;;;6.90;6.05;;;1.80;99.90;;;;;;5012039;28;20195;-92
2021/01/15 00:15:05;;;;;;;9.75;5.85;;;1.80;99.90;;;;;;5012165;28;20304;-91
2021/01/15 00:17:35;;;;;;;7.78;6.18;;;1.80;99.90;;;;;;5021537;28;20197;-91
2021/01/15 00:20:02;;;;;;;11.10;5.35;;;1.70;99.90;;;;;;5025768;28;20339;-91
2021/01/15 00:22:29;;;;;;;6.15;4.63;;;1.70;99.90;;;;;;5013215;28;20673;-91
2021/01/15 00:24:55;;;;;;;6.65;5.55;;;1.70;99.90;;;;;;5011725;28;20287;-91
2021/01/15 00:27:22;;;;;;;6.38;5.65;;;1.70;99.90;;;;;;5012472;28;20204;-90
2021/01/15 00:29:48;;;;;;;8.52;5.18;;;1.70;99.90;;;;;;5012300;28;20699;-91
2021/01/15 00:32:14;;;;;;;6.85;5.50;;;1.70;99.90;;;;;;5012126;28;20227;-91
2021/01/15 00:34:40;;;;;;;7.68;5.53;;;1.60;99.90;;;;;;5011846;28;20227;-89
2021/01/15 00:37:06;;;;;;;7.95;5.15;;;1.70;99.90;;;;;;5017141;28;20203;-90
2021/01/15 00:39:34;;;;;;;10.15;5.72;;;1.70;99.90;;;;;;5031822;28;20192;-91
2021/01/15 00:42:00;;;;;;;6.63;5.05;;;1.60;99.90;;;;;;5031432;28;20210;-91
2021/01/15 00:44:26;;;;;;;7.82;5.55;;;1.60;99.90;;;;;;5031269;28;20751;-92
2021/01/15 00:46:54;;;;;;;7.82;5.82;;;1.60;99.90;;;;;;5027901;28;20201;-91
2021/01/15 00:49:20;;;;;;;9.05;5.60;;;1.60;99.90;;;;;;5013082;28;20203;-91
2021/01/15 00:51:48;;;;;;;6.63;4.68;;;1.50;99.90;;;;;;5014743;28;20208;-91
2021/01/15 00:54:14;;;;;;;7.05;4.78;;;1.60;99.90;;;;;;5014525;28;20221;-92
2021/01/15 00:56:41;;;;;;;13.70;5.45;;;1.60;99.90;;;;;;5029119;28;20206;-90
2021/01/15 00:59:07;;;;;;;10.15;5.75;;;1.60;99.90;;;;;;5034174;28;20257;-91
2021/01/15 01:01:36;;;;;;;5.50;4.20;;;1.60;99.90;;;;;;5034491;28;20198;-90
2021/01/15 01:04:03;;;;;;;5.38;4.55;;;1.60;99.90;;;;;;5033350;28;20262;-90
2021/01/15 01:06:30;;;;;;;7.53;4.63;;;1.50;99.90;;;;;;5033325;28;20216;-90
2021/01/15 01:08:56;;;;;;;5.85;5.35;;;1.50;99.90;;;;;;5031292;28;20290;-91
2021/01/15 01:11:24;;;;;;;5.93;4.90;;;1.50;99.90;;;;;;5031374;28;20198;-90
2021/01/15 01:13:53;;;;;;;6.53;4.30;;;1.60;99.90;;;;;;5030718;28;20775;-91
2021/01/15 01:16:20;;;;;;;5.30;4.47;;;1.50;99.90;;;;;;5032711;28;20201;-91
2021/01/15 01:18:48;;;;;;;5.40;4.65;;;1.50;99.90;;;;;;5038444;28;20183;-92
2021/01/15 01:21:14;;;;;;;5.85;4.15;;;1.50;99.90;;;;;;5053555;28;20210;-92
2021/01/15 01:23:41;;;;;;;5.07;3.70;;;1.50;99.90;;;;;;5031539;28;20221;-92
2021/01/15 01:26:08;;;;;;;5.22;4.03;;;1.50;99.90;;;;;;5014805;28;20674;-91
2021/01/15 01:28:35;;;;;;;5.53;4.03;;;1.50;99.90;;;;;;5015464;28;20211;-93
2021/01/15 01:31:02;;;;;;;6.65;4.00;;;1.40;99.90;;;;;;5015229;28;20205;-92
2021/01/15 01:33:29;;;;;;;5.03;3.75;;;1.50;99.90;;;;;;5016634;28;20216;-91
2021/01/15 01:35:55;;;;;;;7.70;4.40;;;1.50;99.90;;;;;;5034586;28;20208;-92
2021/01/15 01:38:21;;;;;;;5.35;4.72;;;1.50;99.90;;;;;;5034990;28;20268;-92
2021/01/15 01:40:48;;;;;;;8.35;4.80;;;1.40;99.90;;;;;;5034910;28;20203;-92
2021/01/15 01:43:14;;;;;;;6.45;4.25;;;1.30;99.90;;;;;;5034401;28;20223;-92
2021/01/15 01:45:40;;;;;;;6.13;4.00;;;1.20;99.90;;;;;;5014919;28;20362;-92
2021/01/15 01:48:08;;;;;;;6.20;4.75;;;1.20;99.90;;;;;;5014996;28;20669;-92
2021/01/15 01:50:36;;;;;;;6.03;4.25;;;1.30;99.90;;;;;;5014921;28;20204;-91
2021/01/15 01:53:04;;;;;;;4.47;4.03;;;1.30;99.90;;;;;;5014537;28;20204;-92
2021/01/15 01:55:31;;;;;;;4.75;3.97;;;1.30;99.90;;;;;;5014476;28;20208;-92
2021/01/15 01:57:58;;;;;;;6.10;4.80;;;1.30;99.90;;;;;;5014909;28;20632;-91
2021/01/15 02:00:24;;;;;;;7.88;4.50;;;1.30;99.90;;;;;;5014459;28;20196;-92
2021/01/15 02:02:51;;;;;;;8.93;3.47;;;1.30;99.90;;;;;;5027078;28;20264;-92
2021/01/15 02:05:18;;;;;;;4.00;3.60;;;1.30;99.90;;;;;;5033940;28;20228;-91
2021/01/15 02:07:44;;;;;;;6.35;3.83;;;1.30;99.90;;;;;;5034130;28;20588;-91
2021/01/15 02:10:16;;;;;;;4.78;4.10;;;1.20;99.90;;;;;;5034379;28;20207;-92
2021/01/15 02:12:53;;;;;;;10.52;3.80;;;1.10;99.90;;;;;;5033856;28;20206;-91
2021/01/15 02:15:22;;;;;;;4.55;4.15;;;1.00;99.90;;;;;;5034164;28;20234;-91
2021/01/15 02:17:51;;;;;;;8.40;5.22;;;1.10;99.90;;;;;;5032448;28;20578;-91
2021/01/15 02:20:45;;;;;;;8.38;3.75;;;1.10;99.90;;;;;;5034235;28;20195;-91
2021/01/15 02:23:14;;;;;;;6.60;3.35;;;1.10;99.90;;;;;;5018927;28;20207;-92
2021/01/15 02:26:13;;;;;;;5.40;4.15;;;1.10;99.90;;;;;;5014015;28;20269;-92
2021/01/15 02:29:04;;;;;;;4.25;3.85;;;1.10;99.90;;;;;;5014390;28;20207;-90
2021/01/15 02:32:09;;;;;;;5.57;3.95;;;1.20;99.90;;;;;;5014974;28;20209;-92
2021/01/15 02:34:49;;;;;;;4.07;3.45;;;1.10;99.90;;;;;;5031669;28;20227;-92
2021/01/15 02:37:20;;;;;;;5.07;4.20;;;1.10;99.90;;;;;;5014155;28;20207;-92
2021/01/15 02:39:59;;;;;;;4.32;3.65;;;1.00;99.90;;;;;;5013992;28;20209;-91
2021/01/15 02:42:26;;;;;;;4.35;3.60;;;1.00;99.90;;;;;;5022068;28;20203;-92
2021/01/15 02:44:54;;;;;;;4.95;4.00;;;1.00;99.90;;;;;;5033220;28;20703;-92
2021/01/15 02:47:24;;;;;;;4.22;3.83;;;1.00;99.90;;;;;;5033654;28;20390;-91
2021/01/15 02:49:53;;;;;;;4.50;4.07;;;1.00;99.90;;;;;;5033560;28;20212;-92
2021/01/15 02:52:20;;;;;;;3.88;3.47;;;1.00;99.90;;;;;;5033040;28;20200;-91
2021/01/15 02:54:46;;;;;;;6.85;4.60;;;1.00;99.90;;;;;;5033350;28;20695;-91
2021/01/15 02:57:13;;;;;;;3.90;3.50;;;0.90;99.90;;;;;;5033578;28;20191;-92
2021/01/15 02:59:39;;;;;;;4.57;3.42;;;1.00;99.90;;;;;;5033433;28;20207;-91
2021/01/15 03:02:12;;;;;;;5.07;4.32;;;0.90;99.90;;;;;;5028354;28;20206;-91
2021/01/15 03:04:51;;;;;;;7.50;4.60;;;1.00;99.90;;;;;;5013148;28;20224;-91
2021/01/15 03:07:21;;;;;;;3.85;3.45;;;1.00;99.90;;;;;;5013787;28;20203;-91
2021/01/15 03:09:48;;;;;;;7.88;5.38;;;1.00;99.90;;;;;;5013353;28;20199;-93
2021/01/15 03:12:17;;;;;;;7.07;3.97;;;0.90;99.90;;;;;;5019154;28;20195;-91
2021/01/15 03:14:45;;;;;;;6.20;4.45;;;0.80;99.90;;;;;;5032666;28;20215;-91
2021/01/15 03:17:13;;;;;;;4.85;4.40;;;0.70;99.90;;;;;;5033109;28;20274;-91
2021/01/15 03:19:40;;;;;;;4.60;4.15;;;0.70;99.90;;;;;;5032960;28;20203;-91
2021/01/15 03:22:09;;;;;;;4.95;3.47;;;0.70;99.90;;;;;;5028325;28;20212;-91
2021/01/15 03:24:37;;;;;;;5.00;4.30;;;0.70;99.90;;;;;;5012752;28;20322;-91
2021/01/15 03:27:05;;;;;;;5.38;3.78;;;0.70;99.90;;;;;;5013159;28;20292;-90
2021/01/15 03:29:31;;;;;;;8.95;5.20;;;0.60;99.90;;;;;;5013033;28;20227;-91
2021/01/15 03:31:57;;;;;;;5.28;3.92;;;0.60;99.90;;;;;;5015729;28;20225;-91
2021/01/15 03:34:23;;;;;;;7.05;4.65;;;0.50;99.90;;;;;;5032341;28;20219;-91
2021/01/15 03:36:49;;;;;;;4.70;4.10;;;0.50;99.90;;;;;;5013938;28;20208;-91
2021/01/15 03:39:16;;;;;;;7.43;5.32;;;0.40;99.90;;;;;;5014751;28;20199;-91
2021/01/15 03:41:43;;;;;;;6.78;5.32;;;0.40;99.90;;;;;;5017401;28;20703;-91
2021/01/15 03:44:09;;;;;;;10.43;5.32;;;0.30;99.90;;;;;;5055008;28;20230;-90
2021/01/15 03:46:35;;;;;;;4.90;4.50;;;0.40;99.90;;;;;;5037937;28;20203;-91
2021/01/15 03:49:01;;;;;;;5.65;3.97;;;0.40;99.90;;;;;;5032247;28;20207;-90
2021/01/15 03:51:27;;;;;;;5.80;4.40;;;0.40;99.90;;;;;;5032479;28;20203;-91
2021/01/15 03:53:53;;;;;;;5.25;4.60;;;0.40;99.90;;;;;;5015753;28;20216;-91
2021/01/15 03:56:20;;;;;;;5.32;4.82;;;0.30;99.90;;;;;;5012404;28;20204;-92
2021/01/15 03:58:47;;;;;;;6.80;4.28;;;0.40;99.90;;;;;;5012550;28;20673;-91
2021/01/15 04:01:15;;;;;;;6.10;4.53;;;0.30;99.90;;;;;;5031361;28;20207;-91
2021/01/15 04:03:41;;;;;;;5.55;4.53;;;0.30;99.90;;;;;;5031930;28;20675;-91
2021/01/15 04:06:07;;;;;;;6.07;4.20;;;0.50;99.90;;;;;;5032013;28;20207;-92
2021/01/15 04:08:33;;;;;;;5.50;5.00;;;0.50;99.90;;;;;;5032242;28;20244;-92
2021/01/15 04:11:00;;;;;;;4.95;3.80;;;0.50;99.90;;;;;;5014622;28;20204;-91
2021/01/15 04:13:26;;;;;;;6.82;5.10;;;0.60;99.90;;;;;;5012301;28;20220;-92
2021/01/15 04:15:53;;;;;;;6.55;4.65;;;0.50;99.90;;;;;;5011890;28;20203;-91
2021/01/15 04:18:19;;;;;;;8.73;5.65;;;0.50;99.90;;;;;;5012340;28;20283;-91
2021/01/15 04:20:45;;;;;;;5.82;4.75;;;0.60;99.90;;;;;;5012389;28;20195;-92
2021/01/15 04:23:11;;;;;;;7.30;5.30;;;0.50;99.90;;;;;;5012081;28;20664;-92
2021/01/15 04:25:38;;;;;;;6.90;4.55;;;0.50;99.90;;;;;;5011733;28;20248;-91
2021/01/15 04:28:04;;;;;;;6.28;4.93;;;0.50;99.90;;;;;;5012110;28;20203;-90
2021/01/15 04:30:30;;;;;;;8.02;5.57;;;0.40;99.90;;;;;;5024755;28;20204;-91
2021/01/15 04:32:57;;;;;;;9.10;5.07;;;0.40;99.90;;;;;;5032300;28;20203;-90
2021/01/15 04:35:24;;;;;;;5.75;5.18;;;0.40;99.90;;;;;;5031625;28;20210;-92
2021/01/15 04:37:50;;;;;;;5.35;4.85;;;0.40;99.90;;;;;;5031744;28;20221;-91
2021/01/15 04:40:16;;;;;;;6.32;5.18;;;0.40;99.90;;;;;;5030810;28;20210;-91
2021/01/15 04:42:45;;;;;;;6.82;5.38;;;0.30;99.90;;;;;;5030768;28;20198;-91
2021/01/15 04:45:13;;;;;;;5.90;5.30;;;0.40;99.90;;;;;;5031427;28;20235;-92
2021/01/15 04:47:42;;;;;;;7.03;5.15;;;0.30;99.90;;;;;;5031636;28;20556;-92
2021/01/15 04:50:12;;;;;;;5.63;5.13;;;0.30;99.90;;;;;;5030900;28;20669;-91
2021/01/15 04:52:45;;;;;;;9.35;6.30;;;0.20;99.90;;;;;;5031850;28;20582;-93
2021/01/15 04:55:16;;;;;;;6.03;5.43;;;0.10;99.90;;;;;;5031427;28;20305;-92
2021/01/15 04:57:44;;;;;;;6.32;5.22;;;0.20;99.90;;;;;;5031421;28;20206;-92
2021/01/15 05:00:15;;;;;;;5.70;5.10;;;0.20;99.90;;;;;;5026371;28;20199;-92
2021/01/15 05:02:45;;;;;;;6.00;5.32;;;0.10;99.90;;;;;;5015654;28;20200;-90
2021/01/15 05:05:20;;;;;;;9.15;6.43;;;0.10;99.90;;;;;;5015487;28;20322;-92
2021/01/15 05:08:08;;;;;;;8.75;5.78;;;0.10;99.90;;;;;;5015997;28;20287;-91
2021/01/15 05:10:38;;;;;;;7.22;6.45;;;0.10;99.90;;;;;;5027399;28;20198;-91
2021/01/15 05:13:08;;;;;;;5.90;5.30;;;0.00;99.90;;;;;;5035502;28;20218;-91
2021/01/15 05:15:35;;;;;;;6.32;5.72;;;-0.10;99.90;;;;;;5035196;28;20230;-91
2021/01/15 05:18:04;;;;;;;9.23;6.03;;;-0.20;99.90;;;;;;5035361;28;20213;-91
2021/01/15 05:20:31;;;;;;;13.63;7.30;;;-0.20;99.90;;;;;;5034666;28;20289;-91
2021/01/15 05:23:00;;;;;;;8.05;6.32;;;-0.20;99.90;;;;;;5035205;28;20758;-91
2021/01/15 05:25:26;;;;;;;7.15;5.60;;;-0.20;99.90;;;;;;5034911;28;20218;-91
2021/01/15 05:27:53;;;;;;;7.20;5.95;;;-0.30;99.90;;;;;;5035366;28;20214;-91
2021/01/15 05:30:21;;;;;;;8.63;6.47;;;-0.20;99.90;;;;;;5034682;28;20203;-91
2021/01/15 05:32:48;;;;;;;7.95;6.55;;;-0.20;99.90;;;;;;5035077;28;20692;-91
2021/01/15 05:35:15;;;;;;;7.97;7.18;;;-0.30;99.90;;;;;;5034672;28;20219;-90
2021/01/15 05:37:54;;;;;;;8.35;6.07;;;-0.30;99.90;;;;;;5035011;28;20209;-90
2021/01/15 05:40:35;;;;;;;5.50;5.00;;;-0.30;99.90;;;;;;5025407;28;20211;-91
2021/01/15 05:43:01;;;;;;;7.85;6.25;;;-0.40;99.90;;;;;;5014917;28;20207;-92
2021/01/15 05:45:28;;;;;;;9.00;6.85;;;-0.40;99.90;;;;;;5014755;28;20223;-91
2021/01/15 05:47:54;;;;;;;7.95;6.45;;;-0.40;99.90;;;;;;5014783;28;20251;-91
2021/01/15 05:50:21;;;;;;;7.68;5.95;;;-0.40;99.90;;;;;;5015213;28;20582;-91
2021/01/15 05:52:57;;;;;;;7.88;6.85;;;-0.30;99.90;;;;;;5014798;28;20206;-91
2021/01/15 05:55:25;;;;;;;6.60;5.90;;;-0.40;99.90;;;;;;5014531;28;20676;-90
2021/01/15 05:57:52;;;;;;;8.98;5.90;;;-0.40;99.90;;;;;;5021354;28;20206;-91
2021/01/15 06:00:39;;;;;;;8.73;7.20;;;-0.40;99.90;;;;;;5035674;28;20202;-91
2021/01/15 06:03:07;;;;;;;9.95;7.00;;;-0.40;99.90;;;;;;5029946;28;20207;-92
2021/01/15 06:05:34;;;;;;;6.57;5.85;;;-0.50;99.90;;;;;;5052397;28;20219;-92
2021/01/15 06:08:02;;;;;;;7.43;6.47;;;-0.50;99.90;;;;;;5033852;28;20241;-90
2021/01/15 06:10:40;;;;;;;7.80;7.10;;;-0.50;99.90;;;;;;5014236;28;20204;-91
2021/01/15 06:13:07;;;;;;;9.60;7.68;;;-0.40;99.90;;;;;;5014777;28;20215;-91
2021/01/15 06:15:44;;;;;;;7.93;5.97;;;-0.40;99.90;;;;;;5014707;28;20661;-90
2021/01/15 06:18:16;;;;;;;10.35;6.85;;;-0.40;99.90;;;;;;5024075;28;20202;-92
2021/01/15 06:20:44;;;;;;;9.13;7.20;;;-0.50;99.90;;;;;;5034722;28;20585;-91
2021/01/15 06:23:14;;;;;;;9.57;7.50;;;-0.40;99.90;;;;;;5034174;28;20252;-91
2021/01/15 06:25:57;;;;;;;8.45;6.25;;;-0.40;99.90;;;;;;5034124;28;20219;-90
2021/01/15 06:28:33;;;;;;;6.85;6.15;;;-0.40;99.90;;;;;;5023352;28;20196;-91
2021/01/15 06:31:01;;;;;;;6.55;5.70;;;-0.50;99.90;;;;;;5014481;28;20268;-90
2021/01/15 06:33:28;;;;;;;10.75;6.97;;;-0.60;99.90;;;;;;5014448;28;20251;-90
2021/01/15 06:35:54;;;;;;;13.57;6.47;;;-0.60;99.90;;;;;;5014201;28;20195;-91
2021/01/15 06:38:27;;;;;;;9.40;7.00;;;-0.60;99.90;;;;;;5014410;28;20203;-90
2021/01/15 06:40:54;;;;;;;12.93;8.20;;;-0.60;99.90;;;;;;5014431;28;20183;-84
2021/01/15 06:43:24;;;;;;;11.65;8.35;;;-0.60;99.90;;;;;;5013612;28;20750;-85
2021/01/15 06:45:52;;;;;;;11.23;7.97;;;-0.70;99.90;;;;;;5013593;28;20302;-86
2021/01/15 06:48:21;;;;;;;12.52;8.35;;;-0.70;99.90;;;;;;5022626;28;20199;-86
2021/01/15 06:51:01;;;;;;;8.30;6.38;;;-0.70;99.90;;;;;;5032182;28;20207;-89
2021/01/15 06:53:30;;;;;;;8.00;5.65;;;-0.60;99.90;;;;;;5032771;28;20580;-88
2021/01/15 06:55:58;;;;;;;9.57;6.18;;;-0.40;99.90;;;;;;5032760;28;20203;-89
2021/01/15 06:58:32;;;;;;;9.35;7.63;;;-0.50;99.90;;;;;;5033260;28;20282;-89
2021/01/15 07:01:17;;;;;;;13.70;9.10;;;-0.60;99.90;;;;;;5033915;28;20256;-90
2021/01/15 07:04:17;;;;;;;11.13;7.85;;;-0.60;99.90;;;;;;5032837;28;20710;-90
2021/01/15 07:07:03;;;;;;;9.68;6.95;;;-0.70;99.90;;;;;;5032863;28;20206;-90
2021/01/15 07:09:31;;;;;;;12.55;7.75;;;-0.60;99.90;;;;;;5032469;28;20198;-89
2021/01/15 07:12:02;;;;;;;12.23;8.02;;;-0.60;99.90;;;;;;5032993;28;20563;-88
2021/01/15 07:14:28;;;;;;;10.13;7.18;;;-0.70;99.90;;;;;;5033326;28;20715;-89
2021/01/15 07:16:56;;;;;;;12.95;8.18;;;-0.70;99.90;;;;;;5033000;28;20698;-89
2021/01/15 07:19:36;;;;;;;9.75;7.50;;;-0.70;99.90;;;;;;5015226;28;20199;-91
2021/01/15 07:22:10;;;;;;;10.18;8.10;;;-0.70;99.90;;;;;;5012374;28;20211;-89
2021/01/15 07:24:40;;;;;;;11.32;8.60;;;-0.70;99.90;;;;;;5012352;28;20234;-89
2021/01/15 07:27:08;;;;;;;14.55;8.82;;;-0.70;99.90;;;;;;5013131;28;20625;-88
2021/01/15 07:29:42;;;;;;;13.82;8.00;;;-0.70;99.90;;;;;;5031836;28;20285;-89
2021/01/15 07:32:17;;;;;;;10.18;7.60;;;-0.70;99.90;;;;;;5032449;28;20207;-88
2021/01/15 07:34:47;;;;;;;9.00;7.43;;;-0.70;99.90;;;;;;5028760;28;20252;-89
2021/01/15 07:37:19;;;;;;;13.57;8.27;;;-0.70;99.90;;;;;;5031665;28;20211;-88
2021/01/15 07:40:20;;;;;;;21.40;12.80;;;-0.80;99.90;;;;;;5030473;28;20734;-90
2021/01/15 07:42:55;;;;;;;23.20;11.73;;;-0.70;99.90;;;;;;5030367;28;20717;-90
2021/01/15 07:45:53;;;;;;;14.32;9.98;;;-0.60;99.90;;;;;;5027799;28;20252;-89
2021/01/15 07:48:20;;;;;;;14.68;10.35;;;-0.70;99.90;;;;;;5029695;28;20195;-89
2021/01/15 07:50:51;;;;;;;16.25;10.82;;;-0.60;99.90;;;;;;5029064;28;20199;-89
2021/01/15 07:53:21;;;;;;;16.30;9.05;;;-0.50;99.90;;;;;;5031800;28;20580;-88
2021/01/15 07:55:53;;;;;;;14.13;8.15;;;-0.40;99.90;;;;;;5030681;28;20191;-89
2021/01/15 07:58:22;;;;;;;11.48;8.95;;;-0.30;99.90;;;;;;5026783;28;20258;-88
2021/01/15 08:00:49;;;;;;;12.27;8.80;;;-0.40;99.90;;;;;;5031669;28;20203;-89
2021/01/15 08:03:16;;;;;;;16.13;10.00;;;-0.30;99.90;;;;;;5032089;28;20195;-91
2021/01/15 08:05:44;;;;;;;10.70;8.93;;;-0.20;99.90;;;;;;5030534;28;20207;-87
2021/01/15 08:08:13;;;;;;;16.10;9.80;;;-0.20;99.90;;;;;;5035964;28;20206;-88
2021/01/15 08:10:45;;;;;;;14.35;9.27;;;-0.10;99.90;;;;;;5038254;28;20249;-89
2021/01/15 08:13:37;;;;;;;10.93;8.85;;;-0.10;99.90;;;;;;5032182;28;20202;-89
2021/01/15 08:16:10;;;;;;;11.88;9.50;;;-0.10;99.90;;;;;;5032459;28;20194;-88
2021/01/15 08:18:37;;;;;;;12.07;8.65;;;-0.10;99.90;;;;;;5037049;28;20214;-89
2021/01/15 08:21:04;;;;;;;13.48;8.95;;;0.00;99.90;;;;;;5050359;28;20653;-90
2021/01/15 08:23:36;;;;;;;10.45;8.85;;;0.20;99.90;;;;;;5034931;28;20218;-89
2021/01/15 08:26:29;;;;;;;13.65;8.88;;;0.30;99.90;;;;;;5030875;28;20226;-88
2021/01/15 08:28:59;;;;;;;13.50;9.88;;;0.30;99.90;;;;;;5031583;28;20203;-88
2021/01/15 08:31:27;;;;;;;14.30;10.05;;;0.30;99.90;;;;;;5031948;28;20194;-88
2021/01/15 08:34:11;;;;;;;11.25;8.43;;;0.50;99.90;;;;;;5031617;28;20771;-90
2021/01/15 08:36:40;;;;;;;12.90;8.73;;;0.50;99.90;;;;;;5012418;28;20709;-89
2021/01/15 08:39:08;;;;;;;13.02;10.05;;;0.60;99.90;;;;;;5012728;28;20258;-90
2021/01/15 08:41:35;;;;;;;12.32;9.30;;;0.60;99.90;;;;;;5013691;28;20199;-90
2021/01/15 08:44:03;;;;;;;15.25;9.52;;;0.70;99.90;;;;;;5031328;28;20229;-89
2021/01/15 08:46:32;;;;;;;13.13;10.10;;;0.80;99.90;;;;;;5030907;28;20623;-89
2021/01/15 08:49:07;;;;;;;13.30;10.45;;;0.80;99.90;;;;;;5032160;28;20233;-89
2021/01/15 08:51:35;;;;;;;14.55;10.38;;;0.80;99.90;;;;;;5030209;28;20207;-90
2021/01/15 08:54:05;;;;;;;14.20;9.70;;;0.80;99.90;;;;;;5011459;28;20236;-88
2021/01/15 08:56:39;;;;;;;12.48;9.80;;;0.90;99.90;;;;;;5011549;28;20195;-88
2021/01/15 08:59:08;;;;;;;13.20;10.02;;;0.90;99.90;;;;;;5012914;28;20751;-88
2021/01/15 09:01:39;;;;;;;12.70;10.10;;;1.00;99.90;;;;;;5012337;28;20196;-89
2021/01/15 09:04:07;;;;;;;12.35;9.73;;;1.10;99.90;;;;;;5025121;28;20570;-88
2021/01/15 09:06:34;;;;;;;12.15;10.15;;;1.50;99.90;;;;;;5019281;28;20200;-88
2021/01/15 09:09:03;;;;;;;13.32;9.70;;;2.00;99.90;;;;;;5027848;28;20207;-91
2021/01/15 09:11:41;;;;;;;11.52;10.07;;;2.40;99.90;;;;;;5030716;28;20208;-89
2021/01/15 09:14:12;;;;;;;11.05;9.80;;;2.60;99.90;;;;;;5011865;28;20242;-89
2021/01/15 09:16:39;;;;;;;11.98;9.65;;;2.70;99.90;;;;;;5011291;28;20280;-90
2021/01/15 09:19:07;;;;;;;11.82;9.63;;;2.80;99.60;;;;;;5011898;28;20231;-90
2021/01/15 09:21:33;;;;;;;12.10;9.38;;;2.60;99.10;;;;;;5012059;28;20204;-90
2021/01/15 09:23:59;;;;;;;17.27;11.02;;;2.60;99.30;;;;;;5030988;28;20221;-90
2021/01/15 09:28:59;;;;;;;12.50;9.80;;;3.10;98.90;;;;;;5047909;28;20209;-88
2021/01/15 09:31:26;;;;;;;11.00;9.60;;;3.90;98.40;;;;;;5050470;28;20955;-89
2021/01/15 09:33:53;;;;;;;14.18;10.23;;;4.00;97.00;;;;;;5050310;28;20461;-88
2021/01/15 09:36:23;;;;;;;16.27;11.90;;;4.40;96.50;;;;;;5050709;28;20197;-88
2021/01/15 09:38:51;;;;;;;14.43;12.90;;;5.20;96.20;;;;;;5050993;28;20455;-89
2021/01/15 09:41:17;;;;;;;13.00;11.60;;;5.90;94.90;;;;;;5050398;28;20444;-90
2021/01/15 09:43:43;;;;;;;17.90;14.73;;;5.90;93.70;;;;;;5051088;28;20980;-89
2021/01/15 09:46:26;;;;;;;12.97;11.67;;;5.70;93.90;;;;;;5053503;28;20518;-90
2021/01/15 09:49:27;;;;;;;12.90;11.37;;;5.30;93.90;;;;;;5054201;28;20452;-89
2021/01/15 09:52:18;;;;;;;21.80;13.53;;;5.10;94.50;;;;;;5052003;28;20835;-89
2021/01/15 09:54:44;;;;;;;10.90;9.77;;;5.30;94.50;;;;;;5033872;28;20533;-88
2021/01/15 10:04:01;;;;;;;15.87;10.50;;;5.90;93.40;;;;;;5042252;28;21027;-90
2021/01/15 10:06:54;;;;;;;11.50;10.30;;;6.50;93.30;;;;;;5053857;28;20429;-89
2021/01/15 10:09:20;;;;;;;12.77;11.33;;;6.80;92.30;;;;;;5054429;28;20432;-88
2021/01/15 10:11:47;;;;;;;13.50;11.03;;;7.00;91.70;;;;;;5054033;28;20448;-90
2021/01/15 10:14:15;;;;;;;12.83;10.90;;;7.60;91.00;;;;;;5054439;28;20464;-89
2021/01/15 10:16:42;;;;;;;12.73;11.43;;;8.20;90.50;;;;;;5053938;28;20471;-88
2021/01/15 10:19:10;;;;;;;12.90;10.63;;;9.00;88.80;;;;;;5054467;28;20468;-88
2021/01/15 10:21:39;;;;;;;14.30;11.77;;;9.70;85.10;;;;;;5053890;28;20487;-88
2021/01/15 10:24:06;;;;;;;12.50;11.27;;;9.50;83.00;;;;;;5052682;28;20472;-88
2021/01/15 10:26:33;;;;;;;12.83;11.43;;;9.70;81.90;;;;;;5053615;28;20452;-88
2021/01/15 10:29:02;;;;;;;12.70;11.33;;;9.60;80.60;;;;;;5053803;28;20471;-88
2021/01/15 10:31:30;;;;;;;12.07;10.70;;;10.20;79.60;;;;;;5053297;28;20451;-89
2021/01/15 10:33:57;;;;;;;12.27;11.07;;;11.20;77.00;;;;;;5053008;28;20459;-87
2021/01/15 10:36:25;;;;;;;12.37;11.17;;;11.60;74.30;;;;;;5053457;28;20474;-88
2021/01/15 10:38:52;;;;;;;14.00;12.70;;;11.70;71.90;;;;;;5054811;28;20986;-89
2021/01/15 10:41:28;;;;;;;12.00;10.90;;;12.10;71.20;;;;;;5062234;28;20448;-89
2021/01/15 10:43:55;;;;;;;13.70;12.30;;;12.70;68.40;;;;;;5067821;28;20468;-90
2021/01/15 10:46:28;;;;;;;11.53;10.43;;;13.10;66.00;;;;;;5053605;28;20476;-90
2021/01/15 10:48:54;;;;;;;12.80;11.60;;;14.20;64.40;;;;;;5053015;28;20456;-89
2021/01/15 10:51:20;;;;;;;12.83;11.60;;;14.60;59.50;;;;;;5053534;28;20456;-89
2021/01/15 10:53:47;;;;;;;14.20;13.03;;;15.60;58.70;;;;;;5053344;28;20477;-90
2021/01/15 10:56:13;;;;;;;12.73;11.30;;;17.00;55.80;;;;;;5051964;28;20450;-89
2021/01/15 10:58:39;;;;;;;12.37;11.20;;;17.60;52.00;;;;;;5053280;28;20450;-89
2021/01/15 11:01:06;;;;;;;12.40;11.30;;;18.70;50.60;;;;;;5054162;28;20475;-90
2021/01/15 11:03:32;;;;;;;13.53;12.33;;;20.10;49.10;;;;;;5053202;28;20468;-89
2021/01/15 11:05:58;;;;;;;13.37;12.17;;;20.90;47.30;;;;;;5053303;28;20480;-89
2021/01/15 11:08:24;;;;;;;13.10;12.00;;;21.10;44.00;;;;;;5053016;28;20449;-89
2021/01/15 11:10:51;;;;;;;15.50;14.30;;;20.30;42.90;;;;;;5050612;28;20456;-89
2021/01/15 11:13:17;;;;;;;14.40;12.40;;;20.70;42.40;;;;;;5052396;28;20449;-89
2021/01/15 11:15:44;;;;;;;13.10;11.90;;;21.00;41.50;;;;;;5049602;28;20440;-90
2021/01/15 11:18:10;;;;;;;13.00;11.80;;;21.70;40.70;;;;;;5052884;28;20447;-90
2021/01/15 11:20:36;;;;;;;14.70;13.43;;;22.20;39.70;;;;;;5046858;28;20453;-90
2021/01/15 11:23:03;;;;;;;14.03;12.80;;;21.70;38.70;;;;;;5049230;28;20452;-89
2021/01/15 11:25:29;;;;;;;14.37;13.03;;;21.00;39.80;;;;;;5053256;28;20487;-90
2021/01/15 11:27:56;;;;;;;13.43;12.33;;;21.60;40.20;;;;;;5052105;28;20457;-89
2021/01/15 11:30:23;;;;;;;14.67;13.47;;;21.10;39.00;;;;;;5035696;28;21031;-88
2021/01/15 11:32:49;;;;;;;13.43;12.23;;;22.00;39.40;;;;;;5033023;28;20441;-90
2021/01/15 11:35:15;;;;;;;15.40;14.10;;;21.70;38.40;;;;;;5032867;28;20462;-90
2021/01/15 11:37:41;;;;;;;14.00;12.80;;;21.80;37.70;;;;;;5042052;28;20452;-89
2021/01/15 11:40:10;;;;;;;14.40;12.90;;;21.00;38.20;;;;;;5052589;28;20452;-90
2021/01/15 11:42:36;;;;;;;14.77;13.50;;;21.00;39.10;;;;;;5052288;28;20953;-90
2021/01/15 11:45:05;;;;;;;13.00;11.83;;;20.90;38.60;;;;;;5052074;28;20476;-89
2021/01/15 11:47:32;;;;;;;12.27;11.20;;;21.00;38.50;;;;;;5051954;28;20964;-89
2021/01/15 11:50:02;;;;;;;13.33;11.77;;;20.90;37.60;;;;;;5052572;28;20532;-90
2021/01/15 11:52:28;;;;;;;12.57;11.50;;;21.50;37.60;;;;;;5051946;28;20476;-90
2021/01/15 11:54:54;;;;;;;13.47;12.27;;;21.00;38.10;;;;;;5051270;28;20522;-88
2021/01/15 11:57:21;;;;;;;13.63;12.33;;;21.10;37.90;;;;;;5051765;28;20977;-89
2021/01/15 11:59:47;;;;;;;13.07;11.73;;;22.00;37.90;;;;;;5051887;28;20461;-88
2021/01/15 12:02:14;;;;;;;12.87;11.77;;;22.40;36.70;;;;;;5051805;28;20445;-88
2021/01/15 12:04:40;;;;;;;14.23;10.13;;;21.80;35.80;;;;;;5051492;28;20486;-88
2021/01/15 12:07:06;;;;;;;13.00;11.80;;;22.20;35.80;;;;;;5050719;28;20505;-90
2021/01/15 12:09:32;;;;;;;13.03;11.93;;;22.50;36.10;;;;;;5051856;28;20459;-89
2021/01/15 12:12:00;;;;;;;13.13;12.00;;;22.80;35.10;;;;;;5052871;28;20444;-89
2021/01/15 12:14:26;;;;;;;14.57;13.40;;;22.90;35.30;;;;;;5051616;28;20507;-90
2021/01/15 12:16:57;;;;;;;12.67;11.63;;;23.10;35.90;;;;;;5050638;28;20458;-90
2021/01/15 12:19:24;;;;;;;13.07;12.07;;;22.70;35.10;;;;;;5051449;28;20453;-89
2021/01/15 12:21:50;;;;;;;13.03;12.07;;;23.00;34.60;;;;;;5051689;28;20452;-88
2021/01/15 12:24:16;;;;;;;13.40;12.10;;;22.50;34.10;;;;;;5051634;28;20472;-90
2021/01/15 12:26:43;;;;;;;13.83;12.70;;;22.40;35.30;;;;;;5051049;28;20453;-89
2021/01/15 12:29:09;;;;;;;13.77;12.63;;;22.20;35.40;;;;;;5051959;28;20445;-89
2021/01/15 12:31:36;;;;;;;13.97;12.43;;;21.10;36.20;;;;;;5051667;28;20453;-89
2021/01/15 12:34:03;;;;;;;12.97;11.87;;;21.00;36.20;;;;;;5051317;28;20475;-89
2021/01/15 12:36:30;;;;;;;12.13;10.80;;;20.30;36.20;;;;;;5051406;28;20910;-89
2021/01/15 12:38:56;;;;;;;11.87;10.77;;;19.40;36.50;;;;;;5051125;28;20456;-88
2021/01/15 12:41:23;;;;;;;11.80;10.30;;;18.10;37.90;;;;;;5051293;28;20444;-89
2021/01/15 12:43:49;;;;;;;10.93;9.93;;;17.00;39.20;;;;;;5051407;28;20487;-88
2021/01/15 12:46:15;;;;;;;11.57;10.47;;;14.90;40.30;;;;;;5051137;28;20616;-88
2021/01/15 12:48:42;;;;;;;11.20;10.03;;;13.80;43.10;;;;;;5050787;28;20785;-90
2021/01/15 12:51:08;;;;;;;10.33;9.23;;;13.20;44.70;;;;;;5051450;28;20455;-89
2021/01/15 12:53:35;;;;;;;11.03;9.37;;;12.10;46.00;;;;;;5050625;28;20452;-89
2021/01/15 12:56:01;;;;;;;11.50;10.30;;;10.50;48.70;;;;;;5050831;28;20448;-89
2021/01/15 12:58:28;;;;;;;13.40;12.10;;;10.00;51.30;;;;;;5051972;28;20459;-87
2021/01/15 13:01:41;;;;;;;11.80;10.60;;;9.40;53.70;;;;;;5050995;28;20448;-88
2021/01/15 13:04:08;;;;;;;12.80;11.40;;;9.40;55.40;;;;;;5048773;28;21073;-86
2021/01/15 13:06:38;;;;;;;17.73;12.67;;;10.00;54.10;;;;;;5060763;28;20491;-86